Time;durP1;ratioP1;P1;durP2;ratioP2;P2;SDS_P1;SDS_P2;PMS_P1;PMS_P2;Temp;Humidity;BMP_temperature;BMP_pressure;BME280_temperature;BME280_humidity;BME280_pressure;Samples;Min_cycle;Max_cycle;Signal;HPM_P1;HPM_P2
2021/11/05 00:00:13;;;;;;;20.65;14.25;;;;;;;30.30;22.67;94597.94;5036970;28;20075;-54
2021/11/05 00:02:42;;;;;;;21.45;15.30;;;;;;;30.13;22.70;94593.56;5036810;28;20054;-54
2021/11/05 00:05:09;;;;;;;17.30;14.10;;;;;;;30.08;22.88;94600.94;5032245;28;20049;-55
2021/11/05 00:07:37;;;;;;;17.67;13.05;;;;;;;30.27;22.79;94596.06;5026006;28;20456;-56
2021/11/05 00:10:05;;;;;;;18.92;13.68;;;;;;;30.08;23.12;94587.47;5035883;28;20137;-53
2021/11/05 00:12:32;;;;;;;17.77;12.63;;;;;;;30.10;22.97;94594.38;5036190;28;20053;-54
2021/11/05 00:14:59;;;;;;;16.67;12.45;;;;;;;30.13;22.86;94599.72;5035940;28;20045;-56
2021/11/05 00:17:26;;;;;;;15.05;12.25;;;;;;;29.89;23.01;94595.38;5036367;28;20049;-55
2021/11/05 00:19:53;;;;;;;14.57;11.38;;;;;;;29.92;22.71;94605.34;5036190;28;20045;-54
2021/11/05 00:22:20;;;;;;;16.63;12.07;;;;;;;29.90;22.84;94588.81;5036018;28;20053;-55
2021/11/05 00:24:47;;;;;;;14.55;12.00;;;;;;;29.83;23.29;94592.38;5035609;28;20045;-54
2021/11/05 00:27:15;;;;;;;15.32;12.65;;;;;;;29.95;23.19;94591.09;5035387;28;20048;-54
2021/11/05 00:29:42;;;;;;;13.90;11.93;;;;;;;29.96;22.79;94593.38;5036203;28;20048;-54
2021/11/05 00:32:10;;;;;;;20.08;12.15;;;;;;;29.90;22.98;94581.50;5035741;28;20056;-54
2021/11/05 00:34:37;;;;;;;14.27;11.98;;;;;;;29.61;23.41;94574.94;5035439;28;20052;-54
2021/11/05 00:37:05;;;;;;;13.30;11.90;;;;;;;29.76;22.71;94581.69;5035270;28;20053;-56
2021/11/05 00:39:32;;;;;;;13.43;11.63;;;;;;;29.79;22.77;94580.88;5035703;28;20064;-55
2021/11/05 00:41:59;;;;;;;14.77;11.50;;;;;;;29.56;22.77;94583.47;5035941;28;20052;-56
2021/11/05 00:44:26;;;;;;;15.25;11.30;;;;;;;29.62;22.98;94587.22;5035565;28;20062;-57
2021/11/05 00:46:53;;;;;;;14.38;12.55;;;;;;;29.58;23.19;94573.06;5035592;28;20045;-54
2021/11/05 00:49:20;;;;;;;12.35;10.95;;;;;;;29.64;22.78;94574.13;5035690;28;20487;-57
2021/11/05 00:51:47;;;;;;;12.70;11.38;;;;;;;29.68;23.13;94569.47;5035493;28;20050;-55
2021/11/05 00:54:15;;;;;;;13.80;11.27;;;;;;;29.63;23.07;94567.22;5035122;28;20056;-53
2021/11/05 00:56:42;;;;;;;16.75;11.68;;;;;;;29.54;23.00;94564.25;5031919;28;20042;-55
2021/11/05 00:59:09;;;;;;;14.43;11.57;;;;;;;29.53;22.59;94568.09;5015731;28;20053;-53
2021/11/05 01:01:37;;;;;;;15.23;11.88;;;;;;;29.76;23.02;94570.91;5025064;28;20053;-54
2021/11/05 01:04:05;;;;;;;21.67;16.17;;;;;;;29.89;22.58;94574.59;5034019;28;20060;-54
2021/11/05 01:06:32;;;;;;;16.27;13.00;;;;;;;29.80;23.03;94560.84;5016067;28;20348;-54
2021/11/05 01:08:59;;;;;;;17.50;13.68;;;;;;;29.84;22.59;94566.94;5035246;28;20050;-55
2021/11/05 01:11:26;;;;;;;19.70;14.10;;;;;;;29.52;23.18;94561.19;5035149;28;20052;-55
2021/11/05 01:13:54;;;;;;;21.10;15.50;;;;;;;29.06;23.44;94563.19;5027072;28;20048;-61
2021/11/05 01:16:21;;;;;;;19.48;15.73;;;;;;;29.34;23.47;94548.66;5035129;28;20041;-55
2021/11/05 01:18:48;;;;;;;19.30;13.73;;;;;;;29.59;23.17;94558.41;5035040;28;20464;-55
2021/11/05 01:21:16;;;;;;;27.63;18.20;;;;;;;29.65;22.86;94562.19;5034637;28;20456;-55
2021/11/05 01:23:43;;;;;;;26.10;17.77;;;;;;;29.61;22.82;94553.38;5034798;28;20045;-58
2021/11/05 01:26:11;;;;;;;22.90;16.05;;;;;;;29.64;22.82;94552.56;5034854;28;20049;-55
2021/11/05 01:28:38;;;;;;;22.40;15.55;;;;;;;29.42;23.59;94547.44;5034869;28;20383;-56
2021/11/05 01:31:06;;;;;;;27.17;17.65;;;;;;;29.51;22.70;94546.97;5034630;28;20045;-53
2021/11/05 01:33:33;;;;;;;24.52;16.95;;;;;;;29.11;23.07;94548.53;5034103;28;20045;-57
2021/11/05 01:36:00;;;;;;;23.38;15.57;;;;;;;29.41;23.13;94554.00;5033622;28;20045;-54
2021/11/05 01:38:27;;;;;;;21.00;15.18;;;;;;;29.27;23.04;94542.59;5034027;28;20064;-54
2021/11/05 01:40:55;;;;;;;20.08;15.27;;;;;;;29.17;22.82;94546.94;5033122;28;20459;-54
2021/11/05 01:43:22;;;;;;;19.08;14.43;;;;;;;29.31;22.96;94541.38;5034770;28;20045;-54
2021/11/05 01:45:50;;;;;;;16.20;13.85;;;;;;;29.12;23.16;94548.13;5033899;28;20048;-53
2021/11/05 01:48:18;;;;;;;21.58;15.10;;;;;;;29.18;22.94;94548.47;5034543;28;20045;-54
2021/11/05 01:50:45;;;;;;;15.77;13.77;;;;;;;29.15;22.98;94544.66;5034052;28;20436;-59
2021/11/05 01:53:13;;;;;;;17.73;14.38;;;;;;;29.12;22.92;94539.28;5033637;28;20049;-55
2021/11/05 01:55:41;;;;;;;15.52;13.00;;;;;;;28.75;23.63;94543.47;5034781;28;20053;-58
2021/11/05 01:58:08;;;;;;;20.65;13.52;;;;;;;28.93;22.75;94546.03;5034520;28;20045;-55
2021/11/05 02:00:36;;;;;;;14.63;12.18;;;;;;;29.01;22.91;94554.78;5034564;28;20045;-55
2021/11/05 02:03:04;;;;;;;17.63;15.85;;;;;;;29.02;23.18;94550.94;5033858;28;20042;-56
2021/11/05 02:05:31;;;;;;;16.95;14.52;;;;;;;28.80;23.77;94556.47;5034301;28;20372;-55
2021/11/05 02:07:58;;;;;;;13.73;12.15;;;;;;;29.66;23.39;94561.00;5033823;28;20049;-56
2021/11/05 02:10:27;;;;;;;13.57;12.18;;;;;;;29.30;23.57;94545.25;5033685;28;20068;-56
2021/11/05 02:12:55;;;;;;;14.40;12.90;;;;;;;29.24;22.95;94551.47;5033470;28;20053;-55
2021/11/05 02:15:23;;;;;;;15.57;11.95;;;;;;;29.28;22.95;94542.19;5034246;28;20044;-56
2021/11/05 02:17:51;;;;;;;13.00;11.60;;;;;;;29.19;22.84;94544.59;5034390;28;20045;-56
2021/11/05 02:20:22;;;;;;;14.63;11.30;;;;;;;29.17;23.11;94533.47;5026985;28;20365;-55
2021/11/05 02:22:49;;;;;;;15.35;11.05;;;;;;;29.00;23.40;94537.09;5030650;28;20049;-57
2021/11/05 02:25:17;;;;;;;12.10;10.68;;;;;;;28.94;24.22;94525.25;5033909;28;20045;-56
2021/11/05 02:27:44;;;;;;;12.00;10.82;;;;;;;29.29;23.42;94541.03;5034057;28;20464;-53
2021/11/05 02:30:12;;;;;;;12.02;10.73;;;;;;;29.18;23.44;94537.69;5034027;28;20432;-54
2021/11/05 02:32:42;;;;;;;11.90;10.68;;;;;;;29.09;23.18;94543.53;5033065;28;20057;-55
2021/11/05 02:35:11;;;;;;;11.35;10.25;;;;;;;28.99;23.25;94541.72;5033489;28;20391;-57
2021/11/05 02:37:38;;;;;;;11.90;10.70;;;;;;;29.27;23.39;94532.59;5033268;28;20049;-54
2021/11/05 02:40:06;;;;;;;12.30;10.60;;;;;;;29.52;23.60;94534.28;5015769;28;20050;-55
2021/11/05 02:42:34;;;;;;;12.05;10.63;;;;;;;29.53;23.24;94535.78;5027951;28;20048;-55
2021/11/05 02:45:03;;;;;;;11.65;10.45;;;;;;;29.32;23.71;94526.75;5033481;28;20053;-56
2021/11/05 02:47:30;;;;;;;11.23;10.07;;;;;;;29.37;23.62;94545.16;5033767;28;20045;-55
2021/11/05 02:50:01;;;;;;;11.10;9.95;;;;;;;29.52;23.40;94529.66;5033608;28;20045;-53
2021/11/05 02:52:28;;;;;;;12.07;9.95;;;;;;;29.51;23.64;94532.75;5033723;28;20056;-55
2021/11/05 02:54:55;;;;;;;12.18;10.77;;;;;;;29.45;23.06;94540.50;5032122;28;20053;-53
2021/11/05 02:57:22;;;;;;;11.70;9.98;;;;;;;29.33;23.27;94536.38;5034315;28;20352;-57
2021/11/05 02:59:49;;;;;;;12.88;10.10;;;;;;;28.91;23.32;94536.81;5033654;28;20049;-56
2021/11/05 03:02:22;;;;;;;13.15;10.52;;;;;;;29.11;23.28;94535.81;5033337;28;20048;-56
2021/11/05 03:04:49;;;;;;;11.65;10.48;;;;;;;29.15;23.22;94533.13;5033066;28;20404;-56
2021/11/05 03:07:16;;;;;;;12.43;10.50;;;;;;;28.90;23.16;94544.13;5032999;28;20041;-56
2021/11/05 03:09:44;;;;;;;11.70;10.50;;;;;;;29.13;23.27;94548.88;5028995;28;20053;-55
2021/11/05 03:12:12;;;;;;;12.93;10.40;;;;;;;28.93;23.51;94539.88;5023647;28;20364;-59
2021/11/05 03:14:39;;;;;;;16.52;11.05;;;;;;;28.85;23.38;94531.09;5033156;28;20041;-54
2021/11/05 03:17:07;;;;;;;11.50;10.30;;;;;;;28.99;22.92;94530.97;5033149;28;20056;-53
2021/11/05 03:19:34;;;;;;;14.88;10.93;;;;;;;28.98;22.65;94526.75;5033288;28;20052;-56
2021/11/05 03:22:02;;;;;;;11.82;10.68;;;;;;;29.28;22.83;94536.06;5033452;28;20049;-56
2021/11/05 03:24:29;;;;;;;13.15;10.93;;;;;;;29.03;23.06;94533.63;5033130;28;20053;-56
2021/11/05 03:26:56;;;;;;;12.70;10.25;;;;;;;29.24;22.93;94519.94;5038525;28;20045;-54
2021/11/05 03:29:23;;;;;;;15.23;10.57;;;;;;;28.39;24.09;94534.94;5038576;28;20045;-55
2021/11/05 03:31:51;;;;;;;14.13;10.25;;;;;;;28.66;24.01;94532.41;5033518;28;20049;-55
2021/11/05 03:34:18;;;;;;;13.00;10.90;;;;;;;29.30;23.55;94523.72;5033206;28;20068;-54
2021/11/05 03:36:45;;;;;;;13.38;10.57;;;;;;;29.16;23.31;94540.03;5032493;28;20052;-57
2021/11/05 03:39:12;;;;;;;13.05;10.82;;;;;;;29.15;23.68;94549.28;5033250;28;20057;-55
2021/11/05 03:41:39;;;;;;;11.00;9.95;;;;;;;28.92;23.56;94538.34;5033694;28;20049;-53
2021/11/05 03:44:06;;;;;;;14.95;11.23;;;;;;;29.17;23.52;94544.25;5034809;28;20041;-56
2021/11/05 03:46:34;;;;;;;11.43;10.18;;;;;;;29.10;23.94;94544.31;5037339;28;20041;-58
2021/11/05 03:49:04;;;;;;;12.57;10.60;;;;;;;29.21;23.93;94536.91;5036805;28;20608;-54
2021/11/05 03:51:31;;;;;;;15.52;10.40;;;;;;;29.33;23.59;94547.13;5036960;28;20057;-54
2021/11/05 03:53:58;;;;;;;12.40;10.00;;;;;;;28.93;24.03;94537.19;5036523;28;20045;-55
2021/11/05 03:56:25;;;;;;;12.63;10.02;;;;;;;29.09;23.91;94542.78;5036588;28;20045;-54
2021/11/05 03:58:52;;;;;;;12.63;10.25;;;;;;;29.12;23.26;94539.28;5036291;28;20053;-53
2021/11/05 04:01:20;;;;;;;12.82;9.35;;;;;;;28.73;23.32;94539.63;5036680;28;20042;-52
2021/11/05 04:03:48;;;;;;;11.75;10.55;;;;;;;29.13;23.69;94532.72;5036505;28;20121;-54
2021/11/05 04:06:17;;;;;;;14.27;10.40;;;;;;;29.30;23.60;94537.16;5036439;28;20041;-53
2021/11/05 04:08:44;;;;;;;11.15;9.73;;;;;;;29.11;23.44;94535.06;5035678;28;20072;-55
2021/11/05 04:11:12;;;;;;;11.50;10.30;;;;;;;29.29;23.67;94537.56;5036517;28;20053;-56
2021/11/05 04:13:39;;;;;;;11.55;9.98;;;;;;;29.22;23.52;94527.66;5035906;28;20436;-54
2021/11/05 04:16:06;;;;;;;11.48;10.15;;;;;;;28.93;23.55;94531.81;5036511;28;20049;-55
2021/11/05 04:18:34;;;;;;;11.45;10.27;;;;;;;28.94;23.42;94525.25;5036158;28;20463;-55
2021/11/05 04:21:01;;;;;;;12.25;10.25;;;;;;;28.77;23.45;94519.59;5036143;28;20738;-55
2021/11/05 04:23:28;;;;;;;11.35;10.10;;;;;;;28.82;23.63;94516.47;5035795;28;20049;-55
2021/11/05 04:25:55;;;;;;;12.45;9.40;;;;;;;28.98;23.31;94526.75;5036265;28;20041;-56
2021/11/05 04:28:22;;;;;;;13.10;10.43;;;;;;;28.59;23.05;94519.00;5035913;28;20049;-56
2021/11/05 04:30:49;;;;;;;11.05;9.10;;;;;;;28.78;23.38;94521.13;5035999;28;20052;-55
2021/11/05 04:33:17;;;;;;;10.40;9.15;;;;;;;28.70;23.34;94535.06;5035999;28;20049;-54
2021/11/05 04:35:44;;;;;;;11.05;9.15;;;;;;;28.79;23.45;94522.66;5035420;28;20056;-55
2021/11/05 04:38:11;;;;;;;11.57;8.80;;;;;;;29.22;23.24;94538.44;5035074;28;20053;-55
2021/11/05 04:40:39;;;;;;;10.60;8.88;;;;;;;29.27;23.32;94534.53;5035717;28;20057;-57
2021/11/05 04:43:06;;;;;;;10.05;8.55;;;;;;;29.65;22.97;94527.94;5032865;28;20053;-57
2021/11/05 04:45:34;;;;;;;12.45;8.70;;;;;;;29.50;22.63;94548.13;5034434;28;20049;-55
2021/11/05 04:48:01;;;;;;;12.65;9.57;;;;;;;29.20;23.16;94540.75;5035155;28;20049;-54
2021/11/05 04:50:28;;;;;;;11.27;9.60;;;;;;;29.30;22.95;94539.09;5035921;28;20056;-55
2021/11/05 04:52:56;;;;;;;12.48;10.30;;;;;;;29.31;23.22;94540.63;5035879;28;20049;-55
2021/11/05 04:55:24;;;;;;;11.05;9.18;;;;;;;29.22;23.34;94543.81;5035017;28;20049;-57
2021/11/05 04:57:52;;;;;;;11.95;9.70;;;;;;;29.16;23.21;94565.03;5035514;28;20045;-56
2021/11/05 05:00:21;;;;;;;10.77;9.40;;;;;;;29.03;23.42;94571.28;5035427;28;20056;-55
2021/11/05 05:02:48;;;;;;;12.98;9.07;;;;;;;29.05;23.51;94577.81;5021449;28;20061;-55
2021/11/05 05:05:16;;;;;;;11.00;9.18;;;;;;;29.10;23.55;94579.28;5031286;28;20053;-55
2021/11/05 05:07:44;;;;;;;11.25;9.80;;;;;;;29.26;23.15;94571.44;5034289;28;20471;-55
2021/11/05 05:10:12;;;;;;;12.75;10.20;;;;;;;28.94;23.86;94571.00;5034933;28;20452;-55
2021/11/05 05:12:40;;;;;;;11.68;10.48;;;;;;;28.80;23.78;94578.00;5026436;28;20057;-54
2021/11/05 05:15:09;;;;;;;11.77;10.13;;;;;;;29.13;23.40;94578.50;5028912;28;20052;-56
2021/11/05 05:17:36;;;;;;;12.95;9.82;;;;;;;29.51;22.89;94581.97;5033745;28;20052;-60
2021/11/05 05:20:05;;;;;;;12.02;9.88;;;;;;;29.69;22.92;94595.25;5030786;28;20049;-55
2021/11/05 05:22:32;;;;;;;11.98;10.32;;;;;;;29.43;23.50;94612.81;5016476;28;20057;-46
2021/11/05 05:25:00;;;;;;;11.52;9.68;;;;;;;29.56;23.19;94602.31;5034879;28;20049;-50
2021/11/05 05:27:28;;;;;;;11.43;9.95;;;;;;;29.56;23.52;94611.16;5034524;28;20044;-61
2021/11/05 05:29:56;;;;;;;13.45;9.88;;;;;;;29.71;23.45;94622.56;5034335;28;20053;-50
2021/11/05 05:32:24;;;;;;;13.80;9.88;;;;;;;30.11;22.74;94612.06;5026329;28;20057;-43
2021/11/05 05:34:51;;;;;;;11.30;9.32;;;;;;;30.10;22.85;94613.25;5030617;28;20068;-48
2021/11/05 05:37:18;;;;;;;10.90;8.35;;;;;;;32.78;20.23;94614.22;5022073;28;20042;-50
2021/11/05 05:39:45;;;;;;;10.15;8.55;;;;;;;32.22;20.39;94606.19;5019924;28;20053;-53
2021/11/05 05:42:13;;;;;;;10.32;9.07;;;;;;;32.11;20.13;94599.50;5034255;28;20049;-49
2021/11/05 05:44:40;;;;;;;11.52;8.88;;;;;;;31.99;20.32;94581.19;5031217;28;20072;-49
2021/11/05 05:47:07;;;;;;;13.13;10.05;;;;;;;32.11;20.51;94588.66;5023326;28;20492;-47
2021/11/05 05:49:34;;;;;;;12.73;9.68;;;;;;;31.88;20.51;94595.69;5026483;28;20056;-50
2021/11/05 05:52:02;;;;;;;10.90;9.57;;;;;;;31.97;20.37;94594.38;5029040;28;20060;-50
2021/11/05 05:54:29;;;;;;;13.00;10.75;;;;;;;32.34;19.78;94590.53;5034433;28;20052;-51
2021/11/05 05:56:58;;;;;;;13.35;11.40;;;;;;;31.93;20.46;94602.56;5034364;28;20049;-49
2021/11/05 05:59:26;;;;;;;14.20;12.23;;;;;;;31.90;20.57;94601.44;5034016;28;20065;-49
2021/11/05 06:01:54;;;;;;;14.70;12.57;;;;;;;31.93;20.13;94599.09;5034243;28;20045;-48
2021/11/05 06:04:23;;;;;;;15.98;14.27;;;;;;;32.34;19.68;94607.50;5034374;28;20049;-49
2021/11/05 06:06:50;;;;;;;17.00;13.77;;;;;;;32.45;20.07;94613.44;5033061;28;20052;-47
2021/11/05 06:09:17;;;;;;;15.95;13.80;;;;;;;32.53;19.90;94613.28;5034289;28;20060;-51
2021/11/05 06:11:44;;;;;;;15.93;14.27;;;;;;;32.59;19.67;94622.44;5034066;28;20053;-48
2021/11/05 06:14:13;;;;;;;19.75;15.32;;;;;;;32.54;19.43;94617.53;5034116;28;20049;-51
2021/11/05 06:16:41;;;;;;;16.83;15.10;;;;;;;32.79;19.61;94620.41;5033912;28;20053;-49
2021/11/05 06:19:08;;;;;;;16.90;15.20;;;;;;;32.67;19.71;94613.72;5033780;28;20124;-48
2021/11/05 06:21:36;;;;;;;18.25;16.10;;;;;;;33.08;19.30;94610.44;5033679;28;20052;-47
2021/11/05 06:24:03;;;;;;;20.27;17.73;;;;;;;33.21;19.06;94623.28;5024088;28;20476;-46
2021/11/05 06:26:30;;;;;;;19.65;17.55;;;;;;;33.54;18.69;94635.59;5014407;28;20045;-49
2021/11/05 06:29:02;;;;;;;17.38;15.48;;;;;;;33.64;19.36;94623.72;5018908;28;20467;-52
2021/11/05 06:31:33;;;;;;;17.38;15.52;;;;;;;34.21;19.38;94632.25;5033708;28;20053;-46
2021/11/05 06:34:01;;;;;;;17.60;15.77;;;;;;;33.87;19.16;94636.31;5033956;28;20046;-48
2021/11/05 06:36:29;;;;;;;19.83;17.75;;;;;;;34.21;18.97;94627.59;5033636;28;20049;-48
2021/11/05 06:38:56;;;;;;;19.20;17.10;;;;;;;34.40;18.80;94615.06;5027655;28;20057;-49
2021/11/05 06:41:25;;;;;;;16.65;14.82;;;;;;;34.43;18.87;94621.56;5033178;28;20049;-49
2021/11/05 06:43:53;;;;;;;41.65;37.92;;;;;;;34.47;18.62;94627.63;5033695;28;20049;-48
2021/11/05 06:46:20;;;;;;;76.72;47.95;;;;;;;34.83;18.46;94617.19;5033776;28;20452;-51
2021/11/05 06:48:48;;;;;;;82.05;49.08;;;;;;;35.26;18.33;94628.66;5033347;28;20061;-47
2021/11/05 06:51:15;;;;;;;68.72;47.42;;;;;;;35.23;18.08;94625.63;5033585;28;20049;-48
2021/11/05 06:53:42;;;;;;;58.40;45.47;;;;;;;35.33;18.08;94631.88;5033705;28;20463;-48
2021/11/05 06:56:10;;;;;;;51.78;42.47;;;;;;;35.23;18.00;94628.34;5023257;28;20045;-47
2021/11/05 06:58:38;;;;;;;48.20;41.67;;;;;;;35.02;18.17;94628.28;5014530;28;20041;-49
2021/11/05 07:01:06;;;;;;;52.78;41.20;;;;;;;34.96;18.15;94630.78;5033374;28;20049;-46
2021/11/05 07:03:34;;;;;;;58.13;43.17;;;;;;;35.92;17.27;94629.56;5032357;28;20056;-48
2021/11/05 07:06:01;;;;;;;51.72;40.85;;;;;;;35.79;17.22;94630.31;5033688;28;20056;-50
2021/11/05 07:08:29;;;;;;;41.95;37.58;;;;;;;36.15;17.09;94635.25;5033431;28;20038;-49
2021/11/05 07:10:56;;;;;;;35.42;32.40;;;;;;;36.37;17.22;94634.50;5023906;28;20053;-48
2021/11/05 07:13:23;;;;;;;70.45;63.25;;;;;;;36.80;16.60;94639.09;5032286;28;20050;-48
2021/11/05 07:15:51;;;;;;;145.00;73.68;;;;;;;37.55;16.04;94636.06;5022234;28;20061;-47
2021/11/05 07:18:18;;;;;;;71.75;55.78;;;;;;;36.75;16.64;94637.69;5034737;28;20048;-49
2021/11/05 07:20:45;;;;;;;68.50;53.33;;;;;;;36.74;16.55;94643.59;5037267;28;20050;-48
2021/11/05 07:23:13;;;;;;;86.47;58.70;;;;;;;36.60;16.95;94636.72;5024977;28;20050;-48
2021/11/05 07:25:41;;;;;;;106.47;62.95;;;;;;;37.02;16.71;94637.03;5017767;28;20054;-48
2021/11/05 07:28:08;;;;;;;115.43;63.88;;;;;;;36.89;16.64;94651.97;5027306;28;20045;-48
2021/11/05 07:30:37;;;;;;;134.10;67.95;;;;;;;37.15;16.14;94641.59;5037356;28;20071;-51
2021/11/05 07:33:06;;;;;;;61.70;57.15;;;;;;;38.19;15.16;94636.81;5037493;28;20045;-47
2021/11/05 07:35:33;;;;;;;34.00;31.17;;;;;;;38.02;15.96;94624.69;5037605;28;20050;-47
2021/11/05 07:38:02;;;;;;;14.38;10.98;;;;;;;37.47;15.74;94634.84;5036294;28;20050;-49
2021/11/05 07:40:31;;;;;;;12.75;10.30;;;;;;;36.63;17.06;94638.53;5037116;28;20460;-48
2021/11/05 07:42:58;;;;;;;15.25;10.23;;;;;;;37.20;16.40;94616.47;5036702;28;20049;-49
2021/11/05 07:45:25;;;;;;;13.90;10.50;;;;;;;36.57;17.03;94634.13;5036862;28;20412;-48
2021/11/05 07:47:55;;;;;;;13.18;11.07;;;;;;;36.32;17.35;94637.81;5036737;28;20045;-50
2021/11/05 07:50:24;;;;;;;13.38;9.95;;;;;;;36.18;17.42;94632.88;5036878;28;20484;-50
2021/11/05 07:52:51;;;;;;;15.05;10.20;;;;;;;35.63;18.28;94640.63;5036409;28;20053;-49
2021/11/05 07:55:19;;;;;;;11.70;8.77;;;;;;;35.40;17.80;94644.53;5036783;28;20053;-47
2021/11/05 07:57:47;;;;;;;11.00;8.93;;;;;;;35.86;17.58;94629.34;5036441;28;20445;-47
2021/11/05 08:00:15;;;;;;;12.68;9.93;;;;;;;35.62;17.65;94630.94;5051023;28;20399;-48
2021/11/05 08:02:43;;;;;;;13.85;9.95;;;;;;;35.10;18.03;94624.13;5028020;28;20053;-48
2021/11/05 08:05:10;;;;;;;11.00;9.13;;;;;;;36.36;17.10;94627.53;5016609;28;20046;-48
2021/11/05 08:07:39;;;;;;;13.95;9.65;;;;;;;35.05;18.50;94633.59;5026133;28;20053;-47
2021/11/05 08:10:06;;;;;;;11.60;9.18;;;;;;;35.14;18.07;94630.22;5036290;28;20056;-46
2021/11/05 08:12:34;;;;;;;12.85;9.75;;;;;;;35.78;17.39;94623.38;5036232;28;20053;-52
2021/11/05 08:15:01;;;;;;;16.58;10.48;;;;;;;36.19;17.37;94623.50;5030306;28;20046;-47
2021/11/05 08:17:28;;;;;;;10.25;9.15;;;;;;;35.85;17.38;94627.81;5016577;28;20045;-48
2021/11/05 08:19:55;;;;;;;13.00;9.88;;;;;;;36.06;17.23;94618.13;5019418;28;20045;-51
2021/11/05 08:22:22;;;;;;;10.88;9.52;;;;;;;36.10;17.03;94626.91;5036014;28;20041;-49
2021/11/05 08:24:52;;;;;;;9.52;8.48;;;;;;;36.19;17.42;94626.22;5035946;28;20052;-48
2021/11/05 08:27:19;;;;;;;10.57;8.40;;;;;;;36.30;16.95;94607.53;5036155;28;20436;-49
2021/11/05 08:29:47;;;;;;;10.55;7.15;;;;;;;36.52;16.74;94613.72;5035060;28;20045;-49
2021/11/05 08:32:15;;;;;;;9.25;6.78;;;;;;;36.68;16.83;94621.63;5035882;28;20460;-54
2021/11/05 08:34:42;;;;;;;8.20;7.22;;;;;;;36.62;16.34;94623.41;5035753;28;20452;-53
2021/11/05 08:37:09;;;;;;;11.85;7.72;;;;;;;36.83;16.56;94621.84;5035485;28;20065;-50
2021/11/05 08:39:36;;;;;;;12.48;6.95;;;;;;;36.72;17.04;94630.44;5035740;28;20064;-49
2021/11/05 08:42:04;;;;;;;12.95;8.05;;;;;;;36.74;16.92;94622.56;5035669;28;20431;-49
2021/11/05 08:44:32;;;;;;;11.75;8.50;;;;;;;36.52;17.20;94624.59;5035831;28;20045;-50
2021/11/05 08:47:00;;;;;;;9.75;8.70;;;;;;;36.37;17.13;94629.81;5035697;28;20045;-51
2021/11/05 08:49:28;;;;;;;13.90;8.50;;;;;;;36.42;17.12;94618.34;5035979;28;20048;-50
2021/11/05 08:51:55;;;;;;;12.02;7.53;;;;;;;36.62;17.06;94628.84;5035234;28;20056;-51
2021/11/05 08:54:23;;;;;;;10.45;7.97;;;;;;;36.69;16.65;94628.56;5035573;28;20052;-50
2021/11/05 08:56:50;;;;;;;18.40;10.20;;;;;;;36.77;16.88;94633.75;5035516;28;20053;-50
2021/11/05 08:59:23;;;;;;;11.93;8.65;;;;;;;36.91;16.28;94631.25;5035493;28;20046;-49
2021/11/05 09:01:52;;;;;;;11.23;9.05;;;;;;;36.80;16.36;94632.88;5035009;28;20731;-50
2021/11/05 09:04:19;;;;;;;12.70;8.45;;;;;;;37.13;15.92;94620.25;5035422;28;20456;-51
2021/11/05 09:06:47;;;;;;;14.63;8.88;;;;;;;37.03;16.33;94618.72;5034935;28;20049;-50
2021/11/05 09:09:17;;;;;;;11.73;9.02;;;;;;;37.54;15.69;94613.50;5035457;28;20456;-51
2021/11/05 09:11:54;;;;;;;10.45;8.00;;;;;;;37.44;16.03;94631.06;5030789;28;20360;-50
2021/11/05 09:14:21;;;;;;;12.98;8.27;;;;;;;37.62;15.51;94614.72;5035297;28;20049;-50
2021/11/05 09:16:49;;;;;;;11.70;9.05;;;;;;;37.48;16.21;94607.16;5035152;28;20057;-49
2021/11/05 09:19:16;;;;;;;14.80;9.15;;;;;;;37.42;16.36;94600.78;5035202;28;20053;-49
2021/11/05 09:21:43;;;;;;;17.25;9.40;;;;;;;37.67;16.50;94605.16;5034756;28;20045;-50
2021/11/05 09:24:10;;;;;;;14.07;9.10;;;;;;;37.46;16.36;94612.28;5035114;28;20387;-50
2021/11/05 09:26:37;;;;;;;12.75;9.00;;;;;;;37.54;15.74;94608.06;5035058;28;20049;-49
2021/11/05 09:29:04;;;;;;;13.05;8.82;;;;;;;36.98;16.22;94605.72;5035122;28;20116;-50
2021/11/05 09:31:31;;;;;;;12.48;9.27;;;;;;;37.19;16.07;94609.50;5034874;28;20052;-50
2021/11/05 09:33:58;;;;;;;14.77;9.68;;;;;;;37.22;16.22;94609.38;5034108;28;20380;-53
2021/11/05 09:36:26;;;;;;;13.63;9.48;;;;;;;37.18;15.85;94605.25;5032138;28;20049;-51
2021/11/05 09:38:53;;;;;;;10.57;9.25;;;;;;;37.51;15.73;94602.75;5034652;28;20048;-49
2021/11/05 09:41:21;;;;;;;12.93;8.98;;;;;;;37.31;16.11;94600.47;5033711;28;20052;-49
2021/11/05 09:43:48;;;;;;;13.40;8.85;;;;;;;37.07;15.97;94592.09;5032736;28;20376;-50
2021/11/05 09:46:15;;;;;;;15.18;9.25;;;;;;;36.85;16.35;94603.09;5034713;28;20053;-50
2021/11/05 09:48:44;;;;;;;15.05;9.18;;;;;;;36.44;16.43;94591.47;5034556;28;20033;-49
2021/11/05 09:51:11;;;;;;;13.68;8.50;;;;;;;36.75;16.54;94609.72;5034336;28;20053;-50
2021/11/05 09:53:39;;;;;;;17.65;9.63;;;;;;;37.08;15.95;94601.78;5034212;28;20060;-51
2021/11/05 09:56:08;;;;;;;13.95;9.20;;;;;;;36.85;16.16;94596.88;5033542;28;20046;-50
2021/11/05 09:58:41;;;;;;;11.80;9.43;;;;;;;36.87;16.47;94589.03;5033598;28;20053;-50
2021/11/05 10:01:10;;;;;;;12.20;8.65;;;;;;;36.59;16.63;94601.78;5034200;28;20056;-50
2021/11/05 10:03:38;;;;;;;12.02;9.02;;;;;;;37.17;16.02;94582.72;5033913;28;20057;-49
2021/11/05 10:06:12;;;;;;;14.05;8.68;;;;;;;37.17;16.45;94584.69;5034528;28;20049;-51
2021/11/05 10:08:39;;;;;;;13.35;8.50;;;;;;;37.06;16.22;94566.06;5033793;28;20046;-49
2021/11/05 10:11:22;;;;;;;13.82;8.75;;;;;;;37.13;16.45;94573.94;5034057;28;20052;-50
2021/11/05 10:13:49;;;;;;;13.57;8.52;;;;;;;37.38;16.51;94566.69;5033910;28;20052;-51
2021/11/05 10:16:19;;;;;;;17.00;9.48;;;;;;;37.31;16.23;94576.69;5034516;28;20049;-51
2021/11/05 10:18:56;;;;;;;12.95;8.98;;;;;;;37.62;16.57;94570.31;5033959;28;20457;-53
2021/11/05 10:21:24;;;;;;;13.65;9.30;;;;;;;37.86;15.71;94556.81;5029548;28;20054;-50
2021/11/05 10:23:51;;;;;;;14.77;10.10;;;;;;;37.32;16.50;94564.59;5033762;28;20045;-49
2021/11/05 10:26:28;;;;;;;12.63;9.05;;;;;;;37.17;16.39;94558.19;5034078;28;20075;-50
2021/11/05 10:28:55;;;;;;;14.73;9.63;;;;;;;37.39;16.35;94562.75;5034186;28;20049;-52
2021/11/05 10:31:27;;;;;;;14.07;9.93;;;;;;;37.70;16.09;94557.13;5033856;28;20475;-51
2021/11/05 10:33:55;;;;;;;14.77;9.93;;;;;;;37.50;16.85;94552.94;5033600;28;20045;-51
2021/11/05 10:36:25;;;;;;;12.20;9.63;;;;;;;37.86;16.37;94541.22;5034123;28;20049;-51
2021/11/05 10:38:57;;;;;;;19.57;10.73;;;;;;;37.15;16.69;94544.25;5014334;28;20049;-50
2021/11/05 10:41:26;;;;;;;17.38;10.32;;;;;;;37.38;16.74;94539.44;5015450;28;20045;-48
2021/11/05 10:44:00;;;;;;;14.80;10.20;;;;;;;36.90;17.32;94544.53;5022143;28;20046;-71
2021/11/05 10:46:32;;;;;;;47.13;31.65;;;;;;;37.90;17.03;94547.25;5013246;28;20048;-66
2021/11/05 10:49:27;;;;;;;22.75;14.65;;;;;;;38.13;16.99;94520.50;5013852;28;20038;-58
2021/11/05 10:52:15;;;;;;;16.15;10.45;;;;;;;38.08;16.51;94523.88;5018178;28;20471;-69
2021/11/05 10:54:56;;;;;;;18.55;10.85;;;;;;;38.40;16.57;94528.63;5040231;28;20329;-59
2021/11/05 10:57:48;;;;;;;14.63;8.82;;;;;;;38.46;17.04;94532.22;5023556;28;20057;-52
2021/11/05 11:00:28;;;;;;;20.40;14.73;;;;;;;38.23;16.91;94527.47;5020463;28;20064;-70
2021/11/05 11:02:55;;;;;;;27.23;15.17;;;;;;;38.35;16.16;94523.78;5033287;28;20057;-51
2021/11/05 11:05:37;;;;;;;86.85;74.25;;;;;;;38.07;16.67;94525.09;5039404;28;21032;-70
2021/11/05 11:08:05;;;;;;;23.55;16.15;;;;;;;37.93;16.37;94510.88;5038769;28;20494;-52
2021/11/05 11:10:34;;;;;;;10.32;6.63;;;;;;;38.12;15.07;94529.91;5039680;28;20084;-53
2021/11/05 11:13:01;;;;;;;14.15;7.45;;;;;;;38.35;15.25;94523.78;5038959;28;20056;-58
2021/11/05 11:15:38;;;;;;;10.73;5.22;;;;;;;38.53;13.79;94525.69;5040275;28;20463;-63
2021/11/05 11:18:05;;;;;;;11.57;5.10;;;;;;;38.51;13.09;94512.47;5033288;28;20080;-58
2021/11/05 11:20:36;;;;;;;70.70;55.38;;;;;;;38.91;12.21;94522.28;5020485;28;20053;-50
2021/11/05 11:23:04;;;;;;;17.80;11.50;;;;;;;39.21;12.45;94519.63;5033953;28;20057;-70